Time;durP1;ratioP1;P1;durP2;ratioP2;P2;SDS_P1;SDS_P2;PMS_P1;PMS_P2;Temp;Humidity;BMP_temperature;BMP_pressure;BME280_temperature;BME280_humidity;BME280_pressure;Samples;Min_cycle;Max_cycle;Signal;HPM_P1;HPM_P2
2023/04/26 00:01:56;;;;;;;6.60;3.67;;;8.10;99.90;;;;;;5006045;28;20479;-70
2023/04/26 00:04:22;;;;;;;2.67;2.30;;;8.00;99.90;;;;;;5008516;28;20480;-71
2023/04/26 00:06:48;;;;;;;2.23;1.83;;;8.00;99.90;;;;;;5007472;28;20460;-70
2023/04/26 00:09:14;;;;;;;5.23;1.90;;;8.00;99.90;;;;;;5002349;28;20463;-69
2023/04/26 00:11:40;;;;;;;2.70;1.97;;;8.00;99.90;;;;;;5001706;28;20478;-69
2023/04/26 00:14:06;;;;;;;3.43;1.93;;;8.00;99.90;;;;;;5003657;28;20489;-71
2023/04/26 00:16:31;;;;;;;4.97;2.80;;;8.00;99.90;;;;;;5007629;28;20296;-70
2023/04/26 00:18:57;;;;;;;6.30;2.67;;;7.90;99.90;;;;;;5005040;28;20218;-70
2023/04/26 00:21:23;;;;;;;5.57;2.50;;;7.90;99.90;;;;;;4990682;28;20224;-71
2023/04/26 00:23:48;;;;;;;5.13;2.40;;;7.90;99.90;;;;;;5003496;28;20228;-70
2023/04/26 00:26:14;;;;;;;2.57;2.37;;;7.80;99.90;;;;;;5007196;28;20232;-70
2023/04/26 00:28:39;;;;;;;3.40;2.37;;;7.80;99.90;;;;;;5006941;28;20214;-70
2023/04/26 00:31:06;;;;;;;2.53;2.13;;;7.60;99.90;;;;;;4990298;28;20225;-69
2023/04/26 00:33:31;;;;;;;2.60;1.80;;;7.50;99.90;;;;;;5003658;28;20265;-71
2023/04/26 00:35:57;;;;;;;3.33;1.97;;;7.60;99.90;;;;;;5007892;28;20467;-70
2023/04/26 00:38:23;;;;;;;3.63;1.60;;;7.60;99.90;;;;;;4990260;28;20213;-71
2023/04/26 00:40:50;;;;;;;2.73;1.90;;;7.60;99.90;;;;;;4990431;28;20985;-71
2023/04/26 00:43:15;;;;;;;2.50;2.00;;;7.60;99.90;;;;;;5006616;28;20466;-70
2023/04/26 00:45:41;;;;;;;3.83;2.10;;;7.50;99.90;;;;;;4990980;28;20229;-71
2023/04/26 00:48:07;;;;;;;2.00;1.80;;;7.50;99.90;;;;;;4990254;28;20642;-70
2023/04/26 00:50:33;;;;;;;1.60;1.30;;;7.50;99.90;;;;;;5006134;28;20227;-70
2023/04/26 00:53:00;;;;;;;1.50;1.40;;;7.50;99.90;;;;;;5007239;28;20217;-71
2023/04/26 00:55:26;;;;;;;2.13;1.80;;;7.40;99.90;;;;;;5006729;28;20476;-72
2023/04/26 00:57:52;;;;;;;2.27;1.80;;;7.40;99.90;;;;;;5007447;28;20434;-70
2023/04/26 01:00:18;;;;;;;2.13;1.93;;;7.30;99.90;;;;;;4989430;28;20444;-70
2023/04/26 01:02:44;;;;;;;3.00;2.13;;;7.20;99.90;;;;;;5006999;28;20486;-70
2023/04/26 01:05:10;;;;;;;1.90;1.77;;;7.10;99.90;;;;;;5002656;28;20657;-68
2023/04/26 01:07:37;;;;;;;2.17;2.00;;;7.20;99.90;;;;;;5005590;28;20228;-70
2023/04/26 01:10:08;;;;;;;2.03;1.50;;;7.20;99.90;;;;;;4982168;28;20225;-70
2023/04/26 01:12:34;;;;;;;2.50;1.73;;;7.30;99.90;;;;;;4990807;28;20460;-70
2023/04/26 01:15:00;;;;;;;2.80;2.10;;;7.30;99.90;;;;;;5005198;28;20459;-71
2023/04/26 01:17:25;;;;;;;1.70;1.60;;;7.30;99.90;;;;;;5006184;28;20471;-71
2023/04/26 01:19:51;;;;;;;2.60;1.50;;;7.30;99.90;;;;;;5006548;28;20448;-71
2023/04/26 01:22:17;;;;;;;2.27;1.73;;;7.30;99.90;;;;;;5002476;28;20835;-71
2023/04/26 01:24:49;;;;;;;4.47;1.87;;;7.30;99.90;;;;;;5006011;28;20310;-70
2023/04/26 01:27:15;;;;;;;5.20;2.10;;;7.30;99.90;;;;;;5006724;28;20487;-71
2023/04/26 01:29:41;;;;;;;1.93;1.57;;;7.20;99.90;;;;;;5006441;28;20448;-71
2023/04/26 01:32:07;;;;;;;2.67;1.87;;;7.20;99.90;;;;;;5005953;28;20547;-69
2023/04/26 01:34:33;;;;;;;1.73;1.60;;;7.20;99.90;;;;;;5002224;28;20683;-69
2023/04/26 01:37:00;;;;;;;2.40;1.97;;;7.10;99.90;;;;;;4985876;28;20269;-69
2023/04/26 01:39:26;;;;;;;3.83;2.00;;;7.10;99.90;;;;;;5002336;28;20522;-69
2023/04/26 01:41:52;;;;;;;2.60;1.80;;;7.10;99.90;;;;;;5009966;28;20502;-71
2023/04/26 01:44:18;;;;;;;2.77;1.83;;;7.00;99.90;;;;;;5009413;28;20224;-69
2023/04/26 01:46:44;;;;;;;5.40;2.37;;;7.00;99.90;;;;;;5007767;28;21115;-69
2023/04/26 01:49:11;;;;;;;3.13;2.27;;;6.90;99.90;;;;;;5011190;28;20232;-70
2023/04/26 01:51:37;;;;;;;2.10;1.90;;;6.90;99.90;;;;;;4989982;28;20455;-70
2023/04/26 01:54:06;;;;;;;3.90;1.80;;;6.90;99.90;;;;;;4990020;28;20225;-69
2023/04/26 01:56:31;;;;;;;2.07;1.70;;;6.80;99.90;;;;;;5005101;28;20463;-70
2023/04/26 01:58:59;;;;;;;4.33;2.00;;;6.70;99.90;;;;;;5008770;28;20790;-70
2023/04/26 02:01:25;;;;;;;2.80;2.00;;;6.70;99.90;;;;;;5009150;28;20510;-69
2023/04/26 02:03:51;;;;;;;2.03;1.80;;;6.70;99.90;;;;;;5008779;28;20217;-70
2023/04/26 02:06:18;;;;;;;7.40;1.53;;;6.70;99.90;;;;;;5000199;28;20276;-70
2023/04/26 02:08:45;;;;;;;6.60;2.47;;;6.70;99.90;;;;;;5010167;28;21015;-71
2023/04/26 02:11:10;;;;;;;1.73;1.63;;;6.70;99.90;;;;;;4992820;28;20463;-69
2023/04/26 02:13:37;;;;;;;2.17;1.90;;;6.70;99.90;;;;;;5010223;28;20470;-70
2023/04/26 02:16:02;;;;;;;4.67;1.97;;;6.60;99.90;;;;;;5010971;28;20224;-70
2023/04/26 02:18:28;;;;;;;2.20;2.00;;;6.70;99.90;;;;;;5009025;28;20465;-71
2023/04/26 02:20:54;;;;;;;2.73;1.90;;;6.60;99.90;;;;;;5008870;28;20396;-70
2023/04/26 02:23:20;;;;;;;1.87;1.60;;;6.60;99.90;;;;;;5008915;28;20279;-70
2023/04/26 02:25:47;;;;;;;3.23;2.07;;;6.60;99.90;;;;;;5008704;28;20285;-70
2023/04/26 02:28:13;;;;;;;1.63;1.53;;;6.60;99.90;;;;;;4992607;28;20223;-69
2023/04/26 02:30:39;;;;;;;2.20;2.00;;;6.70;99.90;;;;;;5009653;28;20475;-70
2023/04/26 02:33:05;;;;;;;2.47;1.77;;;6.70;99.90;;;;;;5009626;28;20453;-70
2023/04/26 02:35:30;;;;;;;3.23;1.83;;;6.70;99.90;;;;;;5008824;28;20624;-70
2023/04/26 02:37:57;;;;;;;3.77;2.00;;;6.60;99.90;;;;;;5008748;28;20221;-69
2023/04/26 02:40:23;;;;;;;2.13;1.70;;;6.70;99.90;;;;;;4992021;28;20880;-70
2023/04/26 02:42:49;;;;;;;1.83;1.73;;;6.60;99.90;;;;;;5008864;28;20460;-70
2023/04/26 02:45:15;;;;;;;4.30;1.80;;;6.60;99.90;;;;;;5012437;28;20236;-70
2023/04/26 02:47:41;;;;;;;2.97;1.33;;;6.60;99.90;;;;;;4992549;28;20271;-72
2023/04/26 02:50:08;;;;;;;4.60;1.93;;;6.60;99.90;;;;;;4992615;28;20879;-72
2023/04/26 02:52:35;;;;;;;2.17;2.00;;;6.60;99.90;;;;;;4993191;28;20217;-70
2023/04/26 02:55:03;;;;;;;2.67;2.47;;;6.60;99.90;;;;;;5010354;28;20448;-69
2023/04/26 02:57:30;;;;;;;2.17;1.83;;;6.60;99.90;;;;;;4991476;28;20459;-69
2023/04/26 02:59:56;;;;;;;4.03;1.60;;;6.60;99.90;;;;;;5002792;28;20461;-69
2023/04/26 03:02:23;;;;;;;3.03;1.47;;;6.60;99.90;;;;;;5008356;28;20542;-69
2023/04/26 03:04:49;;;;;;;4.23;2.40;;;6.50;99.90;;;;;;5001937;28;20471;-69
2023/04/26 03:07:15;;;;;;;2.43;2.23;;;6.50;99.90;;;;;;5008025;28;20993;-67
2023/04/26 03:09:41;;;;;;;1.87;1.40;;;6.40;99.90;;;;;;5008400;28;20284;-69
2023/04/26 03:12:07;;;;;;;2.40;1.70;;;6.40;99.90;;;;;;5005838;28;20235;-69
2023/04/26 03:14:34;;;;;;;4.70;1.43;;;6.40;99.90;;;;;;4997945;28;20213;-70
2023/04/26 03:17:01;;;;;;;2.23;1.93;;;6.40;99.90;;;;;;5005001;28;20466;-70
2023/04/26 03:19:28;;;;;;;2.60;1.73;;;6.50;99.90;;;;;;5008136;28;20452;-69
2023/04/26 03:21:55;;;;;;;1.90;1.70;;;6.50;99.90;;;;;;5007734;28;20472;-70
2023/04/26 03:24:22;;;;;;;3.13;1.50;;;6.40;99.90;;;;;;5007744;28;20492;-71
2023/04/26 03:26:48;;;;;;;4.47;3.03;;;6.30;99.90;;;;;;4991689;28;20476;-69
2023/04/26 03:29:14;;;;;;;3.43;3.13;;;6.30;99.90;;;;;;4989027;28;20458;-69
2023/04/26 03:31:40;;;;;;;7.53;3.27;;;6.30;99.90;;;;;;5007761;28;20772;-70
2023/04/26 03:34:06;;;;;;;3.63;2.93;;;6.30;99.90;;;;;;5003338;28;20459;-70
2023/04/26 03:36:33;;;;;;;2.67;2.43;;;6.30;99.90;;;;;;5008892;28;21056;-69
2023/04/26 03:38:59;;;;;;;2.83;2.63;;;6.30;99.90;;;;;;4988643;28;20464;-70
2023/04/26 03:41:25;;;;;;;3.40;2.60;;;6.20;99.90;;;;;;4989422;28;20452;-68
2023/04/26 03:43:53;;;;;;;9.97;3.70;;;6.20;99.90;;;;;;5006973;28;20640;-70
2023/04/26 03:46:18;;;;;;;13.93;4.93;;;6.20;99.90;;;;;;4992845;28;20444;-70
2023/04/26 03:48:45;;;;;;;8.67;5.17;;;6.20;99.90;;;;;;5007154;28;20216;-70
2023/04/26 03:51:10;;;;;;;10.07;4.30;;;6.10;99.90;;;;;;4990420;28;20449;-69
2023/04/26 03:53:37;;;;;;;7.63;4.50;;;6.10;99.90;;;;;;4991905;28;20212;-70
2023/04/26 03:56:02;;;;;;;7.50;4.10;;;6.10;99.90;;;;;;4991435;28;20440;-69
2023/04/26 03:58:30;;;;;;;10.20;4.83;;;6.10;99.90;;;;;;5005085;28;20216;-69
2023/04/26 04:00:57;;;;;;;10.30;4.87;;;6.10;99.90;;;;;;5007475;28;20460;-68
2023/04/26 04:03:23;;;;;;;7.73;4.80;;;6.10;99.90;;;;;;5007083;28;20216;-69
2023/04/26 04:05:48;;;;;;;10.57;4.23;;;6.20;99.90;;;;;;5004321;28;20668;-70
2023/04/26 04:08:14;;;;;;;7.30;4.17;;;6.20;99.90;;;;;;4990557;28;20275;-68
2023/04/26 04:10:41;;;;;;;6.17;4.30;;;6.20;99.90;;;;;;5001960;28;20238;-69
2023/04/26 04:13:10;;;;;;;8.40;4.23;;;6.20;99.90;;;;;;5005493;28;20220;-68
2023/04/26 04:15:38;;;;;;;6.23;3.60;;;6.10;99.90;;;;;;5004561;28;20469;-69
2023/04/26 04:18:04;;;;;;;6.00;3.70;;;6.00;99.90;;;;;;5013146;28;20448;-68
2023/04/26 04:20:30;;;;;;;5.97;3.10;;;5.90;99.90;;;;;;5007906;28;20593;-69
2023/04/26 04:23:00;;;;;;;3.37;2.80;;;5.80;99.90;;;;;;4990438;28;20721;-68
2023/04/26 04:25:26;;;;;;;4.20;2.50;;;5.90;99.90;;;;;;5006883;28;20603;-68
2023/04/26 04:27:52;;;;;;;3.10;2.30;;;5.80;99.90;;;;;;5007162;28;20550;-69
2023/04/26 04:30:18;;;;;;;3.53;2.30;;;5.90;99.90;;;;;;4998785;28;20538;-68
2023/04/26 04:32:45;;;;;;;5.33;2.70;;;5.80;99.90;;;;;;4996816;28;20599;-69
2023/04/26 04:35:13;;;;;;;3.20;2.90;;;5.60;99.90;;;;;;4990965;28;20216;-69
2023/04/26 04:37:39;;;;;;;3.23;2.37;;;5.60;99.90;;;;;;4991202;28;20538;-69
2023/04/26 04:40:10;;;;;;;5.90;2.17;;;5.60;99.90;;;;;;5006479;28;20900;-68
2023/04/26 04:42:36;;;;;;;2.20;2.00;;;5.50;99.90;;;;;;5006530;28;20247;-69
2023/04/26 04:45:05;;;;;;;5.07;2.00;;;5.40;99.90;;;;;;5007126;28;20460;-69
2023/04/26 04:47:36;;;;;;;5.77;2.73;;;5.40;99.90;;;;;;4990057;28;20475;-68
2023/04/26 04:50:06;;;;;;;2.37;2.03;;;5.60;99.90;;;;;;5001432;28;20451;-70
2023/04/26 04:52:32;;;;;;;4.10;2.50;;;5.60;99.90;;;;;;5007069;28;20470;-69
2023/04/26 04:54:58;;;;;;;2.73;1.90;;;5.60;99.90;;;;;;5003893;28;20464;-69
2023/04/26 04:57:25;;;;;;;2.23;1.87;;;5.60;99.90;;;;;;4990607;28;20216;-68
2023/04/26 04:59:51;;;;;;;2.20;1.90;;;5.60;99.90;;;;;;5005473;28;20455;-69
2023/04/26 05:02:16;;;;;;;7.07;2.17;;;5.70;99.90;;;;;;5004613;28;20470;-68
2023/04/26 05:04:42;;;;;;;3.97;2.87;;;5.70;99.90;;;;;;5006487;28;20227;-69
2023/04/26 05:07:08;;;;;;;3.53;2.60;;;5.40;99.90;;;;;;5011283;28;20223;-68
2023/04/26 05:09:35;;;;;;;3.30;2.40;;;4.90;99.90;;;;;;4989568;28;20212;-68
2023/04/26 05:12:02;;;;;;;2.30;2.10;;;4.40;99.90;;;;;;5006453;28;20559;-69
2023/04/26 05:14:29;;;;;;;3.50;2.53;;;4.20;99.90;;;;;;4996755;28;20527;-69
2023/04/26 05:16:55;;;;;;;2.23;2.03;;;4.10;99.90;;;;;;5010737;28;20288;-69
2023/04/26 05:19:21;;;;;;;3.50;2.87;;;4.30;99.90;;;;;;5010131;28;20460;-69
2023/04/26 05:21:47;;;;;;;3.47;2.27;;;4.50;99.90;;;;;;5007138;28;20482;-67
2023/04/26 05:24:13;;;;;;;7.47;2.50;;;4.80;99.90;;;;;;5007442;28;20251;-67
2023/04/26 05:26:39;;;;;;;4.57;2.50;;;5.00;99.90;;;;;;5006341;28;20638;-68
2023/04/26 05:29:11;;;;;;;2.23;2.03;;;5.20;99.90;;;;;;4985599;28;20577;-69
2023/04/26 05:31:45;;;;;;;4.03;2.00;;;5.40;99.90;;;;;;5012733;28;20980;-69
2023/04/26 05:34:32;;;;;;;3.43;2.63;;;5.50;99.90;;;;;;5010292;28;20448;-70
2023/04/26 05:36:58;;;;;;;3.07;2.30;;;5.60;99.90;;;;;;5010284;28;20462;-69
2023/04/26 05:39:23;;;;;;;3.43;2.17;;;5.70;99.90;;;;;;5010104;28;20243;-69
2023/04/26 05:41:50;;;;;;;5.83;2.43;;;5.80;99.90;;;;;;5010875;28;20231;-69
2023/04/26 05:44:16;;;;;;;4.60;2.87;;;5.80;99.90;;;;;;5010012;28;20467;-68
2023/04/26 05:46:42;;;;;;;8.93;2.97;;;5.90;99.90;;;;;;5003471;28;20232;-70
2023/04/26 05:49:09;;;;;;;3.43;2.37;;;5.80;99.90;;;;;;5010109;28;20453;-69
2023/04/26 05:51:34;;;;;;;2.70;2.20;;;5.80;99.90;;;;;;5004995;28;20465;-69
2023/04/26 05:54:00;;;;;;;3.00;2.63;;;5.80;99.90;;;;;;5010304;28;20591;-70
2023/04/26 05:56:26;;;;;;;2.67;2.23;;;5.90;99.90;;;;;;5011586;28;20220;-69
2023/04/26 05:58:52;;;;;;;4.27;3.00;;;5.80;99.90;;;;;;5009249;28;20474;-69
2023/04/26 06:01:18;;;;;;;3.43;2.00;;;5.90;99.90;;;;;;5009753;28;20229;-69
2023/04/26 06:03:44;;;;;;;3.30;2.40;;;6.00;99.90;;;;;;5011148;28;20351;-70
2023/04/26 06:06:11;;;;;;;3.33;2.43;;;6.00;99.90;;;;;;5007368;28;20455;-68
2023/04/26 06:08:38;;;;;;;3.63;2.80;;;6.10;99.90;;;;;;5008848;28;21105;-69
2023/04/26 06:11:04;;;;;;;2.63;2.40;;;6.10;99.90;;;;;;5006424;28;20490;-69
2023/04/26 06:13:30;;;;;;;5.40;2.17;;;6.30;99.90;;;;;;5024251;28;20293;-69
2023/04/26 06:15:59;;;;;;;8.50;2.80;;;6.30;99.90;;;;;;5009711;28;20270;-69
2023/04/26 06:18:25;;;;;;;4.97;3.03;;;6.20;99.90;;;;;;4992649;28;20530;-69
2023/04/26 06:20:51;;;;;;;4.43;2.20;;;6.10;99.90;;;;;;5006863;28;20559;-69
2023/04/26 06:23:16;;;;;;;2.97;2.33;;;6.20;99.90;;;;;;5006843;28;20245;-68
2023/04/26 06:25:44;;;;;;;3.37;2.80;;;6.40;99.90;;;;;;5005834;28;20311;-71
2023/04/26 06:28:11;;;;;;;3.93;2.57;;;6.50;99.90;;;;;;5010175;28;20224;-69
2023/04/26 06:30:37;;;;;;;3.90;3.00;;;6.60;99.90;;;;;;5009225;28;20456;-71
2023/04/26 06:33:03;;;;;;;6.17;3.53;;;6.60;99.90;;;;;;5009478;28;20505;-70
2023/04/26 06:35:30;;;;;;;5.87;3.40;;;6.60;99.90;;;;;;5008456;28;20244;-70
2023/04/26 06:37:56;;;;;;;3.83;3.23;;;6.70;99.90;;;;;;4992928;28;20480;-69
2023/04/26 06:40:22;;;;;;;4.47;3.20;;;6.80;99.90;;;;;;5008962;28;20231;-69
2023/04/26 06:42:47;;;;;;;6.20;3.50;;;6.80;99.90;;;;;;5001281;28;20221;-69
2023/04/26 06:45:16;;;;;;;4.37;2.83;;;6.80;99.90;;;;;;5011024;28;20236;-71
2023/04/26 06:47:43;;;;;;;3.90;2.53;;;6.90;99.90;;;;;;5009254;28;20689;-70
2023/04/26 06:50:10;;;;;;;7.13;2.97;;;6.90;99.90;;;;;;5004398;28;20550;-70
2023/04/26 06:52:35;;;;;;;3.60;2.40;;;7.00;99.90;;;;;;5008856;28;20228;-70
2023/04/26 06:55:02;;;;;;;3.50;2.30;;;7.20;99.90;;;;;;5005390;28;20443;-70
2023/04/26 06:57:28;;;;;;;3.13;2.60;;;7.20;99.90;;;;;;5003967;28;20748;-70
2023/04/26 06:59:53;;;;;;;4.30;2.83;;;7.30;99.90;;;;;;5008499;28;20460;-68
2023/04/26 07:02:19;;;;;;;7.30;2.87;;;7.30;99.90;;;;;;5007868;28;20240;-70
2023/04/26 07:04:45;;;;;;;4.10;2.90;;;7.40;99.90;;;;;;5008645;28;20224;-70
2023/04/26 07:07:11;;;;;;;5.00;2.70;;;7.40;99.90;;;;;;5012851;28;20220;-70
2023/04/26 07:09:37;;;;;;;3.50;2.30;;;7.40;99.90;;;;;;4991589;28;20464;-70
2023/04/26 07:12:02;;;;;;;3.60;2.50;;;7.50;99.90;;;;;;4992432;28;20229;-70
2023/04/26 07:14:28;;;;;;;3.13;2.60;;;7.60;99.90;;;;;;5008471;28;20220;-70
2023/04/26 07:16:54;;;;;;;6.30;3.50;;;7.60;99.90;;;;;;5005900;28;20459;-69
2023/04/26 07:19:19;;;;;;;5.50;2.63;;;7.70;99.90;;;;;;5010683;28;20754;-69
2023/04/26 07:21:45;;;;;;;4.00;2.37;;;7.80;99.90;;;;;;5008603;28;20229;-71
2023/04/26 07:24:12;;;;;;;5.07;2.90;;;7.80;99.90;;;;;;4987954;28;20233;-71
2023/04/26 07:26:38;;;;;;;7.50;2.70;;;7.90;99.90;;;;;;5001790;28;20222;-70
2023/04/26 07:29:03;;;;;;;4.67;2.80;;;8.00;99.90;;;;;;5008112;28;20443;-69
2023/04/26 07:31:30;;;;;;;3.00;2.50;;;8.00;99.90;;;;;;5005942;28;20697;-71
2023/04/26 07:33:56;;;;;;;3.80;2.70;;;8.00;99.90;;;;;;5008223;28;20591;-70
2023/04/26 07:36:22;;;;;;;3.80;2.80;;;8.00;99.90;;;;;;5007683;28;20452;-69
2023/04/26 07:38:48;;;;;;;3.23;2.50;;;8.00;99.90;;;;;;5000131;28;20217;-69
2023/04/26 07:41:15;;;;;;;3.37;2.40;;;8.10;99.90;;;;;;5009521;28;20305;-70
2023/04/26 07:43:41;;;;;;;5.03;2.63;;;8.30;99.90;;;;;;5008546;28;20279;-71
2023/04/26 07:46:06;;;;;;;4.77;2.07;;;8.40;99.90;;;;;;5008238;28;20464;-70
2023/04/26 07:48:32;;;;;;;5.70;2.70;;;8.40;99.90;;;;;;5008012;28;20216;-71
2023/04/26 07:51:09;;;;;;;3.77;2.60;;;8.50;99.90;;;;;;5002196;28;20225;-71
2023/04/26 07:53:35;;;;;;;2.53;2.20;;;8.50;99.90;;;;;;5006115;28;20267;-70
2023/04/26 07:56:03;;;;;;;2.20;1.97;;;8.60;99.90;;;;;;5008092;28;20994;-70
2023/04/26 07:58:31;;;;;;;3.47;2.30;;;8.60;99.90;;;;;;5006271;28;20220;-70
2023/04/26 08:00:58;;;;;;;3.20;1.93;;;8.70;99.90;;;;;;4990886;28;20475;-70
2023/04/26 08:03:23;;;;;;;4.50;2.60;;;8.80;99.90;;;;;;5007969;28;20531;-69
2023/04/26 08:05:50;;;;;;;4.63;1.80;;;8.80;99.90;;;;;;5007025;28;20549;-70
2023/04/26 08:08:15;;;;;;;2.77;1.80;;;9.00;99.90;;;;;;4991703;28;20234;-70
2023/04/26 08:10:41;;;;;;;3.17;2.03;;;9.10;99.90;;;;;;5006660;28;20465;-71
2023/04/26 08:13:07;;;;;;;2.50;1.83;;;9.30;99.90;;;;;;4990668;28;20308;-71
2023/04/26 08:15:33;;;;;;;2.70;2.07;;;9.30;99.90;;;;;;5006351;28;20547;-71
2023/04/26 08:17:59;;;;;;;2.87;1.73;;;9.40;99.90;;;;;;5007107;28;20474;-69
2023/04/26 08:20:24;;;;;;;2.20;1.80;;;9.40;99.90;;;;;;5006376;28;20224;-71
2023/04/26 08:22:55;;;;;;;3.47;2.10;;;9.60;99.90;;;;;;4998600;28;20225;-70
2023/04/26 08:25:22;;;;;;;5.00;2.60;;;9.80;99.90;;;;;;5004423;28;20781;-70
2023/04/26 08:27:47;;;;;;;8.63;2.13;;;9.90;99.90;;;;;;5001244;28;20461;-70
2023/04/26 08:30:13;;;;;;;3.27;1.93;;;10.00;99.90;;;;;;4989928;28;20458;-69
2023/04/26 08:32:39;;;;;;;6.70;2.10;;;10.00;99.90;;;;;;5006506;28;20221;-70
2023/04/26 08:35:05;;;;;;;10.83;2.27;;;10.10;99.90;;;;;;4987000;28;20696;-71
2023/04/26 08:37:31;;;;;;;4.40;2.30;;;10.30;99.90;;;;;;5004936;28;20516;-70
2023/04/26 08:39:57;;;;;;;3.20;2.40;;;10.50;99.90;;;;;;5006424;28;20457;-71
2023/04/26 08:42:27;;;;;;;2.03;1.60;;;10.40;99.90;;;;;;5001410;28;20259;-71
2023/04/26 08:44:53;;;;;;;4.63;2.20;;;10.30;99.90;;;;;;4999479;28;20468;-72
2023/04/26 08:47:28;;;;;;;2.60;2.13;;;10.40;99.90;;;;;;5006899;28;20456;-70
2023/04/26 08:49:58;;;;;;;3.50;2.10;;;10.50;99.90;;;;;;5016176;28;20536;-69
2023/04/26 08:52:27;;;;;;;4.37;2.20;;;10.40;99.90;;;;;;4990964;28;20467;-70
2023/04/26 08:54:56;;;;;;;2.03;1.77;;;10.50;99.90;;;;;;4999051;28;20461;-70
2023/04/26 08:57:23;;;;;;;2.70;2.10;;;10.70;99.90;;;;;;5001902;28;20541;-70
2023/04/26 08:59:50;;;;;;;4.97;2.37;;;10.60;99.90;;;;;;5006301;28;20452;-70
2023/04/26 09:02:20;;;;;;;1.77;1.63;;;10.50;99.90;;;;;;5008582;28;20488;-71
2023/04/26 09:04:47;;;;;;;1.77;1.67;;;10.70;99.90;;;;;;4984263;28;20497;-71
2023/04/26 09:07:34;;;;;;;5.33;2.37;;;10.80;99.90;;;;;;4986318;28;20517;-71
2023/04/26 09:10:01;;;;;;;2.97;2.67;;;11.00;99.90;;;;;;5008691;28;20441;-70
2023/04/26 09:12:27;;;;;;;2.37;2.17;;;10.90;99.90;;;;;;5007169;28;20445;-70
2023/04/26 09:14:52;;;;;;;4.93;2.80;;;10.80;99.90;;;;;;5007218;28;20592;-72
2023/04/26 09:17:40;;;;;;;3.97;2.40;;;10.70;99.90;;;;;;5008825;28;20550;-69
2023/04/26 09:20:26;;;;;;;2.17;1.97;;;10.70;99.90;;;;;;5007310;28;20222;-71
2023/04/26 09:22:53;;;;;;;2.33;1.97;;;10.70;99.90;;;;;;5000156;28;20460;-71
2023/04/26 09:25:28;;;;;;;2.97;2.40;;;10.70;99.90;;;;;;5005782;28;20469;-71
2023/04/26 09:27:53;;;;;;;3.00;2.40;;;10.70;99.90;;;;;;4999305;28;20452;-71
2023/04/26 09:30:21;;;;;;;3.30;2.27;;;11.00;99.90;;;;;;5004294;28;20584;-71
2023/04/26 09:32:52;;;;;;;2.50;2.27;;;11.30;99.90;;;;;;5002678;28;20341;-72
2023/04/26 09:35:30;;;;;;;2.53;1.80;;;11.50;99.90;;;;;;4999510;28;20465;-72
2023/04/26 09:38:06;;;;;;;5.27;2.43;;;11.80;99.90;;;;;;4983258;28;20536;-71
2023/04/26 09:40:42;;;;;;;5.90;2.57;;;11.90;99.90;;;;;;4996977;28;21050;-72
2023/04/26 09:43:10;;;;;;;2.90;2.17;;;11.90;99.90;;;;;;5001397;28;20449;-71
2023/04/26 09:45:55;;;;;;;2.33;2.00;;;12.00;99.90;;;;;;5004977;28;20468;-72
2023/04/26 09:48:22;;;;;;;3.87;2.40;;;11.90;99.90;;;;;;4986216;28;20466;-72
2023/04/26 09:50:51;;;;;;;5.00;2.70;;;11.80;99.90;;;;;;5004980;28;20878;-71
2023/04/26 09:53:30;;;;;;;5.10;2.43;;;11.80;99.90;;;;;;5008682;28;20453;-72
2023/04/26 09:56:04;;;;;;;3.60;1.80;;;11.70;99.90;;;;;;5002758;28;20489;-72
2023/04/26 09:58:30;;;;;;;4.77;2.47;;;11.70;99.90;;;;;;5002944;28;20511;-71
2023/04/26 10:00:57;;;;;;;3.83;2.30;;;11.70;99.90;;;;;;5005554;28;20465;-71
2023/04/26 10:03:23;;;;;;;2.33;2.13;;;11.70;99.90;;;;;;4994171;28;20579;-71
2023/04/26 10:05:49;;;;;;;6.30;2.40;;;11.60;99.90;;;;;;5008983;28;20480;-71
2023/04/26 10:08:15;;;;;;;2.57;2.17;;;11.70;99.90;;;;;;4991147;28;20456;-71
2023/04/26 10:10:42;;;;;;;2.80;2.30;;;11.70;99.90;;;;;;5006424;28;20477;-71
2023/04/26 10:13:12;;;;;;;2.73;2.53;;;11.60;99.90;;;;;;5008889;28;20221;-70
2023/04/26 10:15:38;;;;;;;3.00;2.67;;;11.70;99.90;;;;;;5006867;28;21008;-70
2023/04/26 10:18:04;;;;;;;6.40;2.93;;;11.70;99.90;;;;;;5009187;28;20522;-70
2023/04/26 10:20:30;;;;;;;3.63;2.57;;;11.60;99.90;;;;;;5007689;28;20460;-70
2023/04/26 10:23:01;;;;;;;12.40;3.90;;;11.60;99.90;;;;;;5007195;28;20240;-70
2023/04/26 10:25:40;;;;;;;7.53;3.70;;;11.70;99.90;;;;;;5008543;28;20854;-72
2023/04/26 10:28:07;;;;;;;8.97;2.90;;;11.80;99.90;;;;;;5008991;28;20490;-70
2023/04/26 10:30:56;;;;;;;3.17;2.30;;;11.90;99.90;;;;;;4990501;28;20512;-71
2023/04/26 10:33:23;;;;;;;2.20;2.00;;;12.10;99.90;;;;;;5011180;28;20453;-72
2023/04/26 10:36:00;;;;;;;1.97;1.80;;;12.00;99.90;;;;;;5009413;28;20469;-71
2023/04/26 10:38:25;;;;;;;3.40;2.10;;;12.10;99.90;;;;;;4993297;28;20457;-70
2023/04/26 10:40:51;;;;;;;2.83;2.00;;;12.10;99.90;;;;;;5008204;28;20471;-71
2023/04/26 10:43:18;;;;;;;4.70;2.77;;;12.10;99.90;;;;;;5007390;28;20737;-70
2023/04/26 10:45:48;;;;;;;3.00;2.53;;;12.20;99.90;;;;;;5023680;28;20225;-69
2023/04/26 10:48:19;;;;;;;2.57;2.10;;;12.10;99.90;;;;;;4993134;28;20453;-72
2023/04/26 10:51:00;;;;;;;2.70;2.10;;;11.90;99.90;;;;;;5007935;28;20474;-69
2023/04/26 10:53:44;;;;;;;6.13;2.40;;;12.00;99.90;;;;;;4994374;28;21013;-70
2023/04/26 10:56:30;;;;;;;2.80;2.43;;;12.00;99.90;;;;;;5009459;28;20461;-71
2023/04/26 10:59:10;;;;;;;2.47;2.23;;;12.20;99.90;;;;;;4997399;28;20519;-70
2023/04/26 11:01:36;;;;;;;4.47;2.20;;;12.40;99.90;;;;;;4985520;28;21001;-70
2023/04/26 11:04:10;;;;;;;2.07;1.90;;;12.60;99.90;;;;;;5002140;28;20509;-71
2023/04/26 11:06:56;;;;;;;2.40;2.13;;;12.70;99.90;;;;;;5008516;28;20544;-70
2023/04/26 11:09:40;;;;;;;3.40;2.17;;;13.20;99.90;;;;;;4993087;28;20459;-70
2023/04/26 11:12:11;;;;;;;3.23;2.27;;;13.30;99.90;;;;;;4990436;28;20973;-70
2023/04/26 11:14:37;;;;;;;3.73;1.90;;;13.80;99.90;;;;;;5008262;28;20452;-71
2023/04/26 11:17:06;;;;;;;2.93;2.10;;;14.10;99.90;;;;;;5007891;28;20534;-71
2023/04/26 11:19:32;;;;;;;3.23;2.80;;;14.20;99.90;;;;;;5007382;28;20518;-70
2023/04/26 11:21:59;;;;;;;8.17;2.10;;;14.40;99.50;;;;;;5009978;28;20468;-70
2023/04/26 11:24:29;;;;;;;4.00;2.33;;;14.50;99.90;;;;;;5009796;28;20477;-71
2023/04/26 11:26:57;;;;;;;3.20;2.60;;;14.60;99.90;;;;;;5007093;28;20522;-72
2023/04/26 11:29:23;;;;;;;6.90;2.90;;;14.60;99.30;;;;;;5008221;28;20827;-71
2023/04/26 11:31:57;;;;;;;6.30;3.00;;;14.30;99.50;;;;;;5008258;28;20461;-71
2023/04/26 11:34:37;;;;;;;3.47;2.10;;;14.20;99.90;;;;;;5009014;28;20515;-69
2023/04/26 11:37:05;;;;;;;2.53;2.20;;;14.40;99.80;;;;;;4981963;28;21002;-71
2023/04/26 11:39:31;;;;;;;2.60;2.40;;;14.50;99.00;;;;;;5009312;28;20507;-72
2023/04/26 11:42:06;;;;;;;5.73;2.73;;;14.40;99.60;;;;;;5001397;28;20477;-71
2023/04/26 11:44:32;;;;;;;3.10;2.90;;;14.40;98.60;;;;;;5001145;28;20482;-73
2023/04/26 11:47:00;;;;;;;3.97;2.50;;;14.50;98.80;;;;;;4998214;28;20480;-71
2023/04/26 11:49:26;;;;;;;2.13;1.90;;;14.50;98.60;;;;;;5003057;28;20453;-70
2023/04/26 11:51:53;;;;;;;6.93;2.50;;;14.50;99.40;;;;;;4982406;28;20496;-72
2023/04/26 11:54:32;;;;;;;4.17;3.77;;;14.30;98.70;;;;;;5002016;28;20453;-72
2023/04/26 11:56:58;;;;;;;4.00;3.30;;;14.00;98.80;;;;;;4999132;28;20473;-72
2023/04/26 11:59:28;;;;;;;4.10;3.63;;;13.90;98.20;;;;;;5001696;28;20457;-70
2023/04/26 12:01:55;;;;;;;4.30;2.60;;;13.80;98.10;;;;;;4981069;28;20715;-70
2023/04/26 12:04:28;;;;;;;3.13;2.93;;;14.00;98.70;;;;;;4982909;28;21022;-71
2023/04/26 12:06:54;;;;;;;8.53;3.00;;;14.20;98.80;;;;;;4999123;28;21012;-70
2023/04/26 12:09:23;;;;;;;3.07;2.70;;;14.00;97.70;;;;;;5001586;28;20528;-71
2023/04/26 12:12:00;;;;;;;3.93;2.67;;;13.80;98.10;;;;;;4999714;28;20263;-71
2023/04/26 12:14:34;;;;;;;5.70;2.90;;;13.70;98.10;;;;;;5004033;28;20456;-70
2023/04/26 12:17:01;;;;;;;6.00;3.27;;;13.80;98.30;;;;;;4983103;28;20476;-71
2023/04/26 12:19:31;;;;;;;3.70;3.07;;;13.70;96.80;;;;;;5004280;28;20469;-71
2023/04/26 12:21:57;;;;;;;4.13;2.57;;;13.50;97.40;;;;;;5000204;28;20511;-70
2023/04/26 12:24:23;;;;;;;3.20;2.40;;;13.90;98.00;;;;;;5001968;28;20504;-72
2023/04/26 12:26:48;;;;;;;5.60;4.57;;;14.30;98.10;;;;;;4998741;28;20240;-71
2023/04/26 12:29:14;;;;;;;7.97;5.57;;;13.90;97.20;;;;;;5002649;28;20225;-71
2023/04/26 12:31:40;;;;;;;5.00;4.37;;;13.70;96.80;;;;;;5000879;28;20287;-71
2023/04/26 12:34:06;;;;;;;3.83;3.50;;;13.50;97.70;;;;;;5008632;28;20242;-71
2023/04/26 12:36:32;;;;;;;6.53;3.20;;;13.70;98.30;;;;;;5007024;28;20214;-72
2023/04/26 12:38:59;;;;;;;3.40;2.57;;;14.00;98.20;;;;;;5005392;28;21010;-72
2023/04/26 12:41:25;;;;;;;2.27;2.07;;;14.40;97.60;;;;;;5008756;28;20218;-72
2023/04/26 12:43:51;;;;;;;2.60;2.40;;;14.70;97.70;;;;;;5006062;28;20487;-71
2023/04/26 12:46:16;;;;;;;2.50;2.00;;;14.80;96.90;;;;;;4991384;28;20436;-71
2023/04/26 12:48:42;;;;;;;4.57;2.60;;;14.90;96.50;;;;;;5005617;28;20639;-72
2023/04/26 12:51:08;;;;;;;3.43;2.13;;;15.00;96.80;;;;;;5007223;28;20356;-71
2023/04/26 12:53:34;;;;;;;3.10;2.50;;;14.60;96.60;;;;;;4992430;28;20222;-70
2023/04/26 12:55:59;;;;;;;4.50;2.10;;;14.30;96.00;;;;;;5006179;28;20214;-72